Time;durP1;ratioP1;P1;durP2;ratioP2;P2;SDS_P1;SDS_P2;PMS_P1;PMS_P2;Temp;Humidity;BMP_temperature;BMP_pressure;BME280_temperature;BME280_humidity;BME280_pressure;Samples;Min_cycle;Max_cycle;Signal;HPM_P1;HPM_P2
2022/03/01 00:02:17;;;;;;;13.10;8.82;;;;;;;;;;4958891;28;20074;-79
2022/03/01 00:04:42;;;;;;;14.13;9.73;;;;;;;;;;4976701;28;20125;-79
2022/03/01 00:07:11;;;;;;;13.82;9.60;;;;;;;;;;4958494;28;20053;-80
2022/03/01 00:09:37;;;;;;;14.18;9.32;;;;;;;;;;5005860;28;20042;-78
2022/03/01 00:12:03;;;;;;;15.30;9.88;;;;;;;;;;4993242;28;20987;-79
2022/03/01 00:14:33;;;;;;;13.80;9.70;;;;;;;;;;5008701;28;20129;-79
2022/03/01 00:16:58;;;;;;;14.35;9.32;;;;;;;;;;4976832;28;20058;-79
2022/03/01 00:19:24;;;;;;;13.13;9.35;;;;;;;;;;5009146;28;20043;-79
2022/03/01 00:21:50;;;;;;;13.32;7.88;;;;;;;;;;5009075;28;20397;-78
2022/03/01 00:24:15;;;;;;;10.55;7.63;;;;;;;;;;4992194;28;20062;-79
2022/03/01 00:26:40;;;;;;;11.70;8.75;;;;;;;;;;4992848;28;20493;-78
2022/03/01 00:29:06;;;;;;;13.15;8.70;;;;;;;;;;4976343;28;20106;-78
2022/03/01 00:31:32;;;;;;;11.73;7.80;;;;;;;;;;4992817;28;20189;-78
2022/03/01 00:33:57;;;;;;;10.55;7.38;;;;;;;;;;4991073;28;20022;-78
2022/03/01 00:36:23;;;;;;;10.80;8.18;;;;;;;;;;4975709;28;20057;-78
2022/03/01 00:38:48;;;;;;;12.13;8.13;;;;;;;;;;4992215;28;20038;-79
2022/03/01 00:41:14;;;;;;;10.43;7.65;;;;;;;;;;4992828;28;20428;-79
2022/03/01 00:43:39;;;;;;;10.30;7.50;;;;;;;;;;5008379;28;20030;-78
2022/03/01 00:46:06;;;;;;;11.20;7.80;;;;;;;;;;5008344;28;20077;-79
2022/03/01 00:48:31;;;;;;;11.48;7.25;;;;;;;;;;4990140;28;20080;-79
2022/03/01 00:50:57;;;;;;;11.48;7.30;;;;;;;;;;4992139;28;20042;-79
2022/03/01 00:53:22;;;;;;;11.00;7.20;;;;;;;;;;4991822;28;20042;-79
2022/03/01 00:55:48;;;;;;;9.93;7.43;;;;;;;;;;4975808;28;20045;-79
2022/03/01 00:58:14;;;;;;;12.25;7.38;;;;;;;;;;5007740;28;20034;-78
2022/03/01 01:00:39;;;;;;;9.95;7.43;;;;;;;;;;5008430;28;20034;-79
2022/03/01 01:03:05;;;;;;;11.65;6.90;;;;;;;;;;5008590;28;20096;-79
2022/03/01 01:05:30;;;;;;;9.57;7.60;;;;;;;;;;4991993;28;20046;-79
2022/03/01 01:07:56;;;;;;;10.40;7.72;;;;;;;;;;5005560;28;20034;-78
2022/03/01 01:10:21;;;;;;;9.65;6.88;;;;;;;;;;4991913;28;20030;-79
2022/03/01 01:12:47;;;;;;;9.27;6.40;;;;;;;;;;4991625;28;20030;-78
2022/03/01 01:15:14;;;;;;;10.10;7.30;;;;;;;;;;4991625;28;20038;-79
2022/03/01 01:17:39;;;;;;;11.90;8.07;;;;;;;;;;4973116;28;20034;-78
2022/03/01 01:20:06;;;;;;;8.90;6.40;;;;;;;;;;5006007;28;20065;-78
2022/03/01 01:22:40;;;;;;;11.02;6.97;;;;;;;;;;5005142;28;20500;-79
2022/03/01 01:25:14;;;;;;;8.52;6.50;;;;;;;;;;4974340;28;20147;-79
2022/03/01 01:27:40;;;;;;;8.48;6.43;;;;;;;;;;4974209;28;20512;-78
2022/03/01 01:30:10;;;;;;;9.23;6.68;;;;;;;;;;4991497;28;20034;-79
2022/03/01 01:32:36;;;;;;;11.23;6.50;;;;;;;;;;4957812;28;20073;-79
2022/03/01 01:35:01;;;;;;;8.40;6.55;;;;;;;;;;5007482;28;20035;-79
2022/03/01 01:37:27;;;;;;;7.63;6.05;;;;;;;;;;5006641;28;21317;-78
2022/03/01 01:39:52;;;;;;;8.68;6.65;;;;;;;;;;5007467;28;20109;-78
2022/03/01 01:42:18;;;;;;;9.40;6.80;;;;;;;;;;4991014;28;20452;-79
2022/03/01 01:44:43;;;;;;;8.27;6.20;;;;;;;;;;5006765;28;20046;-79
2022/03/01 01:47:09;;;;;;;8.95;6.50;;;;;;;;;;4973936;28;20077;-79
2022/03/01 01:49:34;;;;;;;10.20;6.57;;;;;;;;;;4989997;28;20121;-79
2022/03/01 01:52:00;;;;;;;9.82;5.75;;;;;;;;;;5006323;28;20038;-79
2022/03/01 01:54:25;;;;;;;7.70;6.43;;;;;;;;;;5006493;28;20070;-79
2022/03/01 01:56:50;;;;;;;8.23;5.80;;;;;;;;;;4989276;28;20444;-79
2022/03/01 01:59:16;;;;;;;8.80;6.15;;;;;;;;;;4989036;28;20396;-79
2022/03/01 02:01:41;;;;;;;8.13;5.95;;;;;;;;;;4990286;28;20050;-79
2022/03/01 02:04:07;;;;;;;8.40;6.20;;;;;;;;;;4973565;28;20034;-79
2022/03/01 02:06:36;;;;;;;8.40;6.00;;;;;;;;;;4972876;28;20040;-79
2022/03/01 02:09:02;;;;;;;7.82;5.50;;;;;;;;;;4973134;28;20390;-79
2022/03/01 02:11:27;;;;;;;6.82;4.97;;;;;;;;;;4990049;28;20038;-79
2022/03/01 02:13:53;;;;;;;7.63;5.75;;;;;;;;;;5005957;28;20058;-79
2022/03/01 02:16:19;;;;;;;6.43;5.63;;;;;;;;;;4973732;28;20038;-79
2022/03/01 02:18:44;;;;;;;9.13;6.05;;;;;;;;;;4989022;28;20084;-79
2022/03/01 02:21:10;;;;;;;7.40;5.20;;;;;;;;;;4989780;28;20026;-79
2022/03/01 02:23:35;;;;;;;7.30;5.78;;;;;;;;;;5006308;28;20124;-78
2022/03/01 02:26:01;;;;;;;7.75;5.05;;;;;;;;;;5005566;28;20045;-78
2022/03/01 02:28:26;;;;;;;8.55;5.45;;;;;;;;;;4971561;28;20053;-79
2022/03/01 02:30:52;;;;;;;7.47;5.85;;;;;;;;;;5006208;28;20061;-78
2022/03/01 02:33:18;;;;;;;7.38;5.75;;;;;;;;;;4973465;28;20062;-79
2022/03/01 02:35:45;;;;;;;7.20;5.57;;;;;;;;;;4989354;28;20077;-79
2022/03/01 02:38:10;;;;;;;7.60;5.22;;;;;;;;;;5003823;28;20186;-79
2022/03/01 02:40:35;;;;;;;6.85;5.25;;;;;;;;;;4973561;28;20536;-79
2022/03/01 02:43:01;;;;;;;6.68;5.00;;;;;;;;;;5005907;28;20034;-78
2022/03/01 02:45:26;;;;;;;7.28;5.05;;;;;;;;;;4968362;28;1097259;-79
2022/03/01 02:47:52;;;;;;;6.35;5.20;;;;;;;;;;5005750;28;20046;-79
2022/03/01 02:50:18;;;;;;;6.13;4.38;;;;;;;;;;4973790;28;20409;-78
2022/03/01 02:52:43;;;;;;;7.68;5.30;;;;;;;;;;4990672;28;20057;-78
2022/03/01 02:55:09;;;;;;;7.70;5.40;;;;;;;;;;4994117;28;20053;-78
2022/03/01 02:57:35;;;;;;;5.85;4.80;;;;;;;;;;4975101;28;20108;-79
2022/03/01 03:00:00;;;;;;;6.72;4.72;;;;;;;;;;5008885;28;20120;-78
2022/03/01 03:02:26;;;;;;;6.47;4.30;;;;;;;;;;4994115;28;20034;-78
2022/03/01 03:04:51;;;;;;;6.40;5.20;;;;;;;;;;4992696;28;20038;-78
2022/03/01 03:07:18;;;;;;;7.70;5.15;;;;;;;;;;5009623;28;20042;-79
2022/03/01 03:09:44;;;;;;;7.55;4.90;;;;;;;;;;4994305;28;20041;-79
2022/03/01 03:12:10;;;;;;;6.18;4.47;;;;;;;;;;5010146;28;20050;-79
2022/03/01 03:14:35;;;;;;;6.82;5.00;;;;;;;;;;4993789;28;20100;-79
2022/03/01 03:17:01;;;;;;;6.32;4.25;;;;;;;;;;4959746;28;20041;-79
2022/03/01 03:19:27;;;;;;;5.68;4.50;;;;;;;;;;4993341;28;20084;-79
2022/03/01 03:21:52;;;;;;;6.88;4.90;;;;;;;;;;4961533;28;20038;-79
2022/03/01 03:24:18;;;;;;;6.68;5.00;;;;;;;;;;5000094;28;20070;-79
2022/03/01 03:26:43;;;;;;;6.65;4.68;;;;;;;;;;4992842;28;20042;-79
2022/03/01 03:29:09;;;;;;;5.60;4.85;;;;;;;;;;4977572;28;20031;-79
2022/03/01 03:31:38;;;;;;;6.53;4.50;;;;;;;;;;4993415;28;20065;-79
2022/03/01 03:34:04;;;;;;;5.85;4.65;;;;;;;;;;4975319;28;20045;-79
2022/03/01 03:36:30;;;;;;;5.88;4.38;;;;;;;;;;4992505;28;20438;-79
2022/03/01 03:38:56;;;;;;;5.80;4.75;;;;;;;;;;4977333;28;20081;-79
2022/03/01 03:41:21;;;;;;;5.25;4.45;;;;;;;;;;4993938;28;20515;-79
2022/03/01 03:43:46;;;;;;;7.25;4.53;;;;;;;;;;4976355;28;20034;-79
2022/03/01 03:46:12;;;;;;;6.65;4.47;;;;;;;;;;4991165;28;20042;-79
2022/03/01 03:48:37;;;;;;;5.68;4.10;;;;;;;;;;4993691;28;20122;-79
2022/03/01 03:51:03;;;;;;;5.03;4.00;;;;;;;;;;5008027;28;20042;-79
2022/03/01 03:53:28;;;;;;;5.82;4.97;;;;;;;;;;5009209;28;20042;-78
2022/03/01 03:55:54;;;;;;;5.15;3.85;;;;;;;;;;4976409;28;20417;-79
2022/03/01 03:58:19;;;;;;;4.68;4.05;;;;;;;;;;4992812;28;20038;-79
2022/03/01 04:00:45;;;;;;;5.95;4.70;;;;;;;;;;4976442;28;20058;-79
2022/03/01 04:03:11;;;;;;;5.22;4.25;;;;;;;;;;5008985;28;20038;-79
2022/03/01 04:05:36;;;;;;;5.35;4.40;;;;;;;;;;5005640;28;20035;-79
2022/03/01 04:08:02;;;;;;;5.32;4.15;;;;;;;;;;4993270;28;20122;-79
2022/03/01 04:10:27;;;;;;;5.78;3.90;;;;;;;;;;4993057;28;20038;-79
2022/03/01 04:12:53;;;;;;;5.18;4.15;;;;;;;;;;4993104;28;20045;-79
2022/03/01 04:15:19;;;;;;;5.90;4.00;;;;;;;;;;5008708;28;20050;-79
2022/03/01 04:17:45;;;;;;;5.85;3.85;;;;;;;;;;5009152;28;20046;-79
2022/03/01 04:20:11;;;;;;;5.90;4.75;;;;;;;;;;4992884;28;20031;-79
2022/03/01 04:22:36;;;;;;;6.05;4.13;;;;;;;;;;4976357;28;20080;-79
2022/03/01 04:25:02;;;;;;;4.90;3.80;;;;;;;;;;4991860;28;20045;-79
2022/03/01 04:27:27;;;;;;;5.65;4.13;;;;;;;;;;4976532;28;20036;-79
2022/03/01 04:29:53;;;;;;;5.35;4.20;;;;;;;;;;4992438;28;20034;-79
2022/03/01 04:32:18;;;;;;;6.05;3.88;;;;;;;;;;5008757;28;20045;-79
2022/03/01 04:34:44;;;;;;;5.00;3.60;;;;;;;;;;4990701;28;20042;-79
2022/03/01 04:37:10;;;;;;;4.03;3.30;;;;;;;;;;5008922;28;20081;-79
2022/03/01 04:39:36;;;;;;;5.00;3.70;;;;;;;;;;4990680;28;20034;-79
2022/03/01 04:42:01;;;;;;;4.65;3.50;;;;;;;;;;5008711;28;20042;-79
2022/03/01 04:44:26;;;;;;;5.95;4.15;;;;;;;;;;4974009;28;20035;-79
2022/03/01 04:46:53;;;;;;;4.38;3.40;;;;;;;;;;4992239;28;20073;-79
2022/03/01 04:49:18;;;;;;;5.03;3.78;;;;;;;;;;4957989;28;20030;-79
2022/03/01 04:51:44;;;;;;;5.57;3.88;;;;;;;;;;4991849;28;20104;-79
2022/03/01 04:54:09;;;;;;;5.53;4.18;;;;;;;;;;4988766;28;20031;-79
2022/03/01 04:56:34;;;;;;;5.07;2.95;;;;;;;;;;4991983;28;20038;-79
2022/03/01 04:59:00;;;;;;;5.43;3.75;;;;;;;;;;5008194;28;20505;-79
2022/03/01 05:01:25;;;;;;;5.13;4.22;;;;;;;;;;5008180;28;20117;-79
2022/03/01 05:03:51;;;;;;;5.53;4.07;;;;;;;;;;4972608;28;20026;-79
2022/03/01 05:06:16;;;;;;;4.55;3.50;;;;;;;;;;4959315;28;20038;-80
2022/03/01 05:08:42;;;;;;;4.95;3.75;;;;;;;;;;4991884;28;20036;-80
2022/03/01 05:11:07;;;;;;;4.30;3.80;;;;;;;;;;5008079;28;20069;-80
2022/03/01 05:13:33;;;;;;;5.70;4.53;;;;;;;;;;4973378;28;20042;-79
2022/03/01 05:15:58;;;;;;;4.70;3.72;;;;;;;;;;4973320;28;20049;-80
2022/03/01 05:18:24;;;;;;;5.07;3.85;;;;;;;;;;4990119;28;20030;-79
2022/03/01 05:20:49;;;;;;;4.72;3.53;;;;;;;;;;5008004;28;20105;-79
2022/03/01 05:23:15;;;;;;;5.53;3.97;;;;;;;;;;4974868;28;20057;-79
2022/03/01 05:25:40;;;;;;;5.03;3.67;;;;;;;;;;4992051;28;20027;-79
2022/03/01 05:28:06;;;;;;;5.35;3.83;;;;;;;;;;4991175;28;20453;-79
2022/03/01 05:30:31;;;;;;;3.88;3.30;;;;;;;;;;4987286;28;20100;-79
2022/03/01 05:32:57;;;;;;;6.03;3.75;;;;;;;;;;4973421;28;20035;-79
2022/03/01 05:35:25;;;;;;;5.13;3.85;;;;;;;;;;4991125;28;20128;-80
2022/03/01 05:37:54;;;;;;;5.15;3.92;;;;;;;;;;4975213;28;20030;-80
2022/03/01 05:40:21;;;;;;;4.97;3.75;;;;;;;;;;4990885;28;20026;-79
2022/03/01 05:42:50;;;;;;;5.07;4.00;;;;;;;;;;4975506;28;20031;-79
2022/03/01 05:45:15;;;;;;;4.30;3.63;;;;;;;;;;4973340;28;20039;-79
2022/03/01 05:47:42;;;;;;;3.92;3.20;;;;;;;;;;4973831;28;20031;-79
2022/03/01 05:50:11;;;;;;;5.57;4.00;;;;;;;;;;4991166;28;20513;-79
2022/03/01 05:52:37;;;;;;;5.55;4.53;;;;;;;;;;4991041;28;20035;-79
2022/03/01 05:55:03;;;;;;;4.47;3.63;;;;;;;;;;4990987;28;20046;-79
2022/03/01 05:57:29;;;;;;;4.57;3.65;;;;;;;;;;4988591;28;20505;-79
2022/03/01 05:59:56;;;;;;;4.78;4.07;;;;;;;;;;4990359;28;20070;-79
2022/03/01 06:02:21;;;;;;;5.03;4.15;;;;;;;;;;4990970;28;20022;-79
2022/03/01 06:04:47;;;;;;;4.95;3.63;;;;;;;;;;5005819;28;20049;-79
2022/03/01 06:07:12;;;;;;;4.82;3.65;;;;;;;;;;4988258;28;20038;-79
2022/03/01 06:09:38;;;;;;;4.60;3.90;;;;;;;;;;4990206;28;20038;-79
2022/03/01 06:12:03;;;;;;;5.25;3.90;;;;;;;;;;4990857;28;20030;-79
2022/03/01 06:14:29;;;;;;;4.90;3.20;;;;;;;;;;5003462;28;20130;-79
2022/03/01 06:16:54;;;;;;;4.90;3.45;;;;;;;;;;4989939;28;20519;-79
2022/03/01 06:19:20;;;;;;;4.38;3.30;;;;;;;;;;4972879;28;20061;-79
2022/03/01 06:21:45;;;;;;;4.57;3.65;;;;;;;;;;4974474;28;20037;-79
2022/03/01 06:24:11;;;;;;;5.13;3.53;;;;;;;;;;4989980;28;20038;-79
2022/03/01 06:26:36;;;;;;;4.22;3.72;;;;;;;;;;4990396;28;20437;-79
2022/03/01 06:29:03;;;;;;;3.75;3.33;;;;;;;;;;5006497;28;20038;-79
2022/03/01 06:31:29;;;;;;;4.47;3.58;;;;;;;;;;4988900;28;20531;-80
2022/03/01 06:33:56;;;;;;;5.00;3.90;;;;;;;;;;4974070;28;20027;-79
2022/03/01 06:36:25;;;;;;;4.90;3.70;;;;;;;;;;4990574;28;20030;-79
2022/03/01 06:38:50;;;;;;;5.05;3.60;;;;;;;;;;4986367;28;20104;-79
2022/03/01 06:41:16;;;;;;;4.78;3.55;;;;;;;;;;4989518;28;20042;-79
2022/03/01 06:43:41;;;;;;;4.80;3.75;;;;;;;;;;4973619;28;20046;-79
2022/03/01 06:46:07;;;;;;;4.63;3.63;;;;;;;;;;5006790;28;20065;-79
2022/03/01 06:48:33;;;;;;;4.47;3.47;;;;;;;;;;4989408;28;20535;-78
2022/03/01 06:50:58;;;;;;;5.45;4.05;;;;;;;;;;4990310;28;20030;-79
2022/03/01 06:53:24;;;;;;;6.05;3.80;;;;;;;;;;4989666;28;20043;-78
2022/03/01 06:55:49;;;;;;;6.97;3.80;;;;;;;;;;4990284;28;20032;-78
2022/03/01 06:58:14;;;;;;;4.72;3.50;;;;;;;;;;4989171;28;20236;-77
2022/03/01 07:00:40;;;;;;;4.95;3.58;;;;;;;;;;5006809;28;20053;-77
2022/03/01 07:03:06;;;;;;;5.10;4.13;;;;;;;;;;5006859;28;20041;-79
2022/03/01 07:05:31;;;;;;;7.22;3.45;;;;;;;;;;5006263;28;20121;-80
2022/03/01 07:07:57;;;;;;;5.47;3.38;;;;;;;;;;5005303;28;20046;-79
2022/03/01 07:10:22;;;;;;;7.13;3.50;;;;;;;;;;4973953;28;20519;-80
2022/03/01 07:12:48;;;;;;;5.18;4.00;;;;;;;;;;4990194;28;20121;-78
2022/03/01 07:15:14;;;;;;;5.43;3.67;;;;;;;;;;4989982;28;20042;-78
2022/03/01 07:17:39;;;;;;;4.75;3.42;;;;;;;;;;4972291;28;20042;-79
2022/03/01 07:20:07;;;;;;;5.70;4.15;;;;;;;;;;4972522;28;20496;-79
2022/03/01 07:22:33;;;;;;;5.50;3.42;;;;;;;;;;5006147;28;20045;-78
2022/03/01 07:24:59;;;;;;;6.10;3.92;;;;;;;;;;4973916;28;20046;-79
2022/03/01 07:27:26;;;;;;;5.95;3.85;;;;;;;;;;4989144;28;20037;-79
2022/03/01 07:29:52;;;;;;;5.47;3.45;;;;;;;;;;4990221;28;20035;-78
2022/03/01 07:32:17;;;;;;;5.13;3.25;;;;;;;;;;5006483;28;20114;-77
2022/03/01 07:34:42;;;;;;;4.95;3.17;;;;;;;;;;4989954;28;20042;-78
2022/03/01 07:37:08;;;;;;;5.72;3.50;;;;;;;;;;4957077;28;20460;-79
2022/03/01 07:39:33;;;;;;;5.63;3.50;;;;;;;;;;4989829;28;20088;-78
2022/03/01 07:41:59;;;;;;;6.90;3.78;;;;;;;;;;4976208;28;20034;-78
2022/03/01 07:44:24;;;;;;;9.43;4.40;;;;;;;;;;5009303;28;20030;-78
2022/03/01 07:46:50;;;;;;;8.32;4.55;;;;;;;;;;4993490;28;20042;-78
2022/03/01 07:49:15;;;;;;;6.65;4.05;;;;;;;;;;5008513;28;20057;-79
2022/03/01 07:51:41;;;;;;;8.07;4.80;;;;;;;;;;4977172;28;20066;-79
2022/03/01 07:54:06;;;;;;;5.28;4.25;;;;;;;;;;4960319;28;20026;-78
2022/03/01 07:56:32;;;;;;;7.03;4.18;;;;;;;;;;5009370;28;20042;-78
2022/03/01 07:58:57;;;;;;;8.88;4.07;;;;;;;;;;4960202;28;20042;-79
2022/03/01 08:01:23;;;;;;;6.63;4.00;;;;;;;;;;4993389;28;20432;-79
2022/03/01 08:03:48;;;;;;;8.63;4.32;;;;;;;;;;5009316;28;20056;-79
2022/03/01 08:06:14;;;;;;;5.78;4.10;;;;;;;;;;4992865;28;20045;-79
2022/03/01 08:08:39;;;;;;;6.88;4.10;;;;;;;;;;4976598;28;20113;-78
2022/03/01 08:11:05;;;;;;;6.97;4.15;;;;;;;;;;5008926;28;20046;-79
2022/03/01 08:13:31;;;;;;;6.53;4.50;;;;;;;;;;4992712;28;20092;-78
2022/03/01 08:15:57;;;;;;;5.72;3.92;;;;;;;;;;4960821;28;20134;-79
2022/03/01 08:18:22;;;;;;;6.57;4.40;;;;;;;;;;4992692;28;20113;-79
2022/03/01 08:20:48;;;;;;;7.65;3.90;;;;;;;;;;4991431;28;20938;-79
2022/03/01 08:23:13;;;;;;;6.43;4.20;;;;;;;;;;5008794;28;20085;-79
2022/03/01 08:25:39;;;;;;;5.28;4.00;;;;;;;;;;4992574;28;20133;-79
2022/03/01 08:28:04;;;;;;;9.98;3.60;;;;;;;;;;4976763;28;20366;-77
2022/03/01 08:30:30;;;;;;;10.63;4.18;;;;;;;;;;5007318;28;20137;-76
2022/03/01 08:32:55;;;;;;;8.77;4.10;;;;;;;;;;4992850;28;20031;-76
2022/03/01 08:35:21;;;;;;;10.60;4.38;;;;;;;;;;4992297;28;20034;-76
2022/03/01 08:37:46;;;;;;;11.65;4.15;;;;;;;;;;5005158;28;20497;-76
2022/03/01 08:40:12;;;;;;;11.57;3.63;;;;;;;;;;5008946;28;20046;-76
2022/03/01 08:42:38;;;;;;;11.63;4.32;;;;;;;;;;4992907;28;20034;-76
2022/03/01 08:45:05;;;;;;;6.25;4.38;;;;;;;;;;5008609;28;20077;-76
2022/03/01 08:47:30;;;;;;;6.82;3.92;;;;;;;;;;5003828;28;20418;-78
2022/03/01 08:49:56;;;;;;;8.05;3.88;;;;;;;;;;4975292;28;20043;-78
2022/03/01 08:52:21;;;;;;;8.10;4.88;;;;;;;;;;4991910;28;20034;-78
2022/03/01 08:54:47;;;;;;;8.55;3.60;;;;;;;;;;5004287;28;20436;-79
2022/03/01 08:57:12;;;;;;;9.35;3.88;;;;;;;;;;4982468;28;20121;-79
2022/03/01 08:59:37;;;;;;;12.98;4.25;;;;;;;;;;4984978;28;20413;-79
2022/03/01 09:02:04;;;;;;;8.15;3.90;;;;;;;;;;4972477;28;20089;-80
2022/03/01 09:04:29;;;;;;;12.55;4.38;;;;;;;;;;4943892;28;20047;-80
2022/03/01 09:06:55;;;;;;;12.00;4.65;;;;;;;;;;4989643;28;20033;-80
2022/03/01 09:09:20;;;;;;;11.70;5.70;;;;;;;;;;4992096;28;20100;-80
2022/03/01 09:11:46;;;;;;;10.85;5.93;;;;;;;;;;5008366;28;20616;-80
2022/03/01 09:14:11;;;;;;;14.05;6.72;;;;;;;;;;5007704;28;20072;-80
2022/03/01 09:16:38;;;;;;;17.65;6.75;;;;;;;;;;4990803;28;20062;-79
2022/03/01 09:19:04;;;;;;;14.48;7.47;;;;;;;;;;4991721;28;20030;-79
2022/03/01 09:21:30;;;;;;;18.60;7.13;;;;;;;;;;4972819;28;20050;-79
2022/03/01 09:23:55;;;;;;;15.48;7.18;;;;;;;;;;4974134;28;20035;-79
2022/03/01 09:26:21;;;;;;;12.95;6.70;;;;;;;;;;4971923;28;20060;-80
2022/03/01 09:28:46;;;;;;;13.48;6.93;;;;;;;;;;4945493;28;20409;-79
2022/03/01 09:31:11;;;;;;;15.35;6.93;;;;;;;;;;5005942;28;20413;-80
2022/03/01 09:33:42;;;;;;;11.20;6.13;;;;;;;;;;4990786;28;20066;-79
2022/03/01 09:36:12;;;;;;;15.38;6.45;;;;;;;;;;4991622;28;20081;-79
2022/03/01 09:38:37;;;;;;;19.45;7.15;;;;;;;;;;4976408;28;20039;-80
2022/03/01 09:41:03;;;;;;;16.90;8.25;;;;;;;;;;4972267;28;20035;-79
2022/03/01 09:43:28;;;;;;;14.30;6.15;;;;;;;;;;4955967;28;20042;-79
2022/03/01 09:45:54;;;;;;;16.92;6.25;;;;;;;;;;4959207;28;20129;-79
2022/03/01 09:48:19;;;;;;;10.52;6.03;;;;;;;;;;4990988;28;20042;-79
2022/03/01 09:50:45;;;;;;;13.60;6.13;;;;;;;;;;4968786;28;20065;-78
2022/03/01 09:53:11;;;;;;;9.10;6.20;;;;;;;;;;4966142;28;20038;-78
2022/03/01 09:55:36;;;;;;;11.88;5.70;;;;;;;;;;4973874;28;20405;-78
2022/03/01 09:58:01;;;;;;;13.68;6.55;;;;;;;;;;4987266;28;20034;-79
2022/03/01 10:00:27;;;;;;;13.20;6.30;;;;;;;;;;4974870;28;20105;-79
2022/03/01 10:02:58;;;;;;;16.00;6.93;;;;;;;;;;4974477;28;20056;-79
2022/03/01 10:05:38;;;;;;;9.52;5.57;;;;;;;;;;4975268;28;20038;-80
2022/03/01 10:08:07;;;;;;;13.88;6.82;;;;;;;;;;4971623;28;20046;-79
2022/03/01 10:10:41;;;;;;;12.60;5.63;;;;;;;;;;4972488;28;20049;-79
2022/03/01 10:13:07;;;;;;;10.48;5.50;;;;;;;;;;4955308;28;20129;-78
2022/03/01 10:15:32;;;;;;;10.45;5.65;;;;;;;;;;4971904;28;20134;-79
2022/03/01 10:17:58;;;;;;;11.68;5.95;;;;;;;;;;4970757;28;20405;-79
2022/03/01 10:20:24;;;;;;;10.90;5.63;;;;;;;;;;4971855;28;20142;-79
2022/03/01 10:22:53;;;;;;;11.07;5.28;;;;;;;;;;4972358;28;20042;-79
2022/03/01 10:25:20;;;;;;;8.20;5.25;;;;;;;;;;4955781;28;20039;-79
2022/03/01 10:27:46;;;;;;;8.60;5.70;;;;;;;;;;4983760;28;20039;-79
2022/03/01 10:30:12;;;;;;;10.70;5.18;;;;;;;;;;4971776;28;20493;-79
2022/03/01 10:32:38;;;;;;;11.70;4.93;;;;;;;;;;4990752;28;20086;-79
2022/03/01 10:35:08;;;;;;;8.35;4.63;;;;;;;;;;4991080;28;20096;-79
2022/03/01 10:37:38;;;;;;;8.32;5.03;;;;;;;;;;4990239;28;20057;-79
2022/03/01 10:40:21;;;;;;;10.23;5.30;;;;;;;;;;4974885;28;20034;-79
2022/03/01 10:43:00;;;;;;;9.25;5.13;;;;;;;;;;5007079;28;20035;-79
2022/03/01 10:45:30;;;;;;;6.18;4.03;;;;;;;;;;4958377;28;20046;-79
2022/03/01 10:47:56;;;;;;;6.50;4.15;;;;;;;;;;4970708;28;20047;-79
2022/03/01 10:50:23;;;;;;;8.98;4.45;;;;;;;;;;4971516;28;20116;-79
2022/03/01 10:52:49;;;;;;;13.23;4.88;;;;;;;;;;4965611;28;20034;-79
2022/03/01 10:55:43;;;;;;;8.27;4.93;;;;;;;;;;4953797;28;20096;-79
2022/03/01 10:58:12;;;;;;;8.38;4.47;;;;;;;;;;4975174;28;20047;-79
2022/03/01 11:00:38;;;;;;;5.63;4.03;;;;;;;;;;4974919;28;20043;-79
2022/03/01 11:03:04;;;;;;;7.30;4.25;;;;;;;;;;4974500;28;20046;-79
2022/03/01 11:05:30;;;;;;;9.63;5.00;;;;;;;;;;4958268;28;20030;-79
2022/03/01 11:07:56;;;;;;;11.63;4.68;;;;;;;;;;4970505;28;20035;-79
2022/03/01 11:10:22;;;;;;;7.10;4.78;;;;;;;;;;4987199;28;20077;-80
2022/03/01 11:12:48;;;;;;;9.85;5.38;;;;;;;;;;4987732;28;20038;-79
2022/03/01 11:15:34;;;;;;;8.50;5.43;;;;;;;;;;4990322;28;20510;-79
2022/03/01 11:18:07;;;;;;;6.20;3.78;;;;;;;;;;4990520;28;20043;-79
2022/03/01 11:20:35;;;;;;;6.30;3.88;;;;;;;;;;4975082;28;20571;-79
2022/03/01 11:23:09;;;;;;;6.57;3.83;;;;;;;;;;4943677;28;20035;-79
2022/03/01 11:25:42;;;;;;;5.45;3.80;;;;;;;;;;4943026;28;20066;-79
2022/03/01 11:28:10;;;;;;;6.30;3.95;;;;;;;;;;4963056;28;20035;-79
2022/03/01 11:30:40;;;;;;;5.68;4.25;;;;;;;;;;4958624;28;20094;-79
2022/03/01 11:33:05;;;;;;;6.25;3.92;;;;;;;;;;4963920;28;20038;-79
2022/03/01 11:35:33;;;;;;;6.72;4.30;;;;;;;;;;4990898;28;20038;-79
2022/03/01 11:38:11;;;;;;;7.85;4.10;;;;;;;;;;4963549;28;20090;-79
2022/03/01 11:40:39;;;;;;;5.13;3.60;;;;;;;;;;4958864;28;20038;-79
2022/03/01 11:43:08;;;;;;;5.47;3.75;;;;;;;;;;4958500;28;20398;-79
2022/03/01 11:45:34;;;;;;;6.38;4.13;;;;;;;;;;4958343;28;20038;-79
2022/03/01 11:48:04;;;;;;;5.75;3.75;;;;;;;;;;4958574;28;20088;-79
2022/03/01 11:50:30;;;;;;;5.75;3.60;;;;;;;;;;4942447;28;20181;-79
2022/03/01 11:52:57;;;;;;;6.68;4.10;;;;;;;;;;4955711;28;20038;-79
2022/03/01 11:55:23;;;;;;;4.93;3.22;;;;;;;;;;4945388;28;20711;-78
2022/03/01 11:57:50;;;;;;;6.78;3.60;;;;;;;;;;4961472;28;20064;-79
2022/03/01 12:00:15;;;;;;;6.50;3.78;;;;;;;;;;4977301;28;20165;-79
2022/03/01 12:02:45;;;;;;;5.60;3.28;;;;;;;;;;4957909;28;20410;-79
2022/03/01 12:05:20;;;;;;;4.93;3.78;;;;;;;;;;4977764;28;20069;-79
2022/03/01 12:07:46;;;;;;;5.85;3.80;;;;;;;;;;4961552;28;20034;-79
2022/03/01 12:10:19;;;;;;;5.25;3.13;;;;;;;;;;4977820;28;20076;-79
2022/03/01 12:12:45;;;;;;;4.68;3.60;;;;;;;;;;4957453;28;20039;-80
2022/03/01 12:15:12;;;;;;;4.75;3.50;;;;;;;;;;4973578;28;20031;-79
2022/03/01 12:17:46;;;;;;;5.13;3.50;;;;;;;;;;4958185;28;20552;-79
2022/03/01 12:20:13;;;;;;;7.63;3.40;;;;;;;;;;4973950;28;20038;-80
2022/03/01 12:22:52;;;;;;;4.45;3.03;;;;;;;;;;4977054;28;20888;-79
2022/03/01 12:25:18;;;;;;;5.53;3.08;;;;;;;;;;4993498;28;20031;-79
2022/03/01 12:27:43;;;;;;;4.35;3.72;;;;;;;;;;4976822;28;20064;-79
2022/03/01 12:30:09;;;;;;;4.45;3.05;;;;;;;;;;4993261;28;20046;-79
2022/03/01 12:32:35;;;;;;;5.40;3.13;;;;;;;;;;4958635;28;20038;-79
2022/03/01 12:35:01;;;;;;;5.25;3.53;;;;;;;;;;4991560;28;20420;-79
2022/03/01 12:37:27;;;;;;;4.93;3.42;;;;;;;;;;4976726;28;20488;-79
2022/03/01 12:39:53;;;;;;;5.28;3.83;;;;;;;;;;4977059;28;20038;-79
2022/03/01 12:42:21;;;;;;;5.93;3.10;;;;;;;;;;4970877;28;20130;-79
2022/03/01 12:44:46;;;;;;;5.65;4.07;;;;;;;;;;4957440;28;20070;-79
2022/03/01 12:47:12;;;;;;;4.90;3.55;;;;;;;;;;4957447;28;20078;-79
2022/03/01 12:49:38;;;;;;;5.50;3.13;;;;;;;;;;4957561;28;20062;-79
2022/03/01 12:52:04;;;;;;;3.53;2.53;;;;;;;;;;4958382;28;20035;-79
2022/03/01 12:54:29;;;;;;;4.00;2.80;;;;;;;;;;4969055;28;20054;-79
2022/03/01 12:57:00;;;;;;;5.15;3.40;;;;;;;;;;4992168;28;20581;-79
2022/03/01 12:59:32;;;;;;;4.87;3.30;;;;;;;;;;4992556;28;20049;-79
2022/03/01 13:02:00;;;;;;;3.70;2.80;;;;;;;;;;4976779;28;20041;-79
2022/03/01 13:04:30;;;;;;;4.00;2.88;;;;;;;;;;4992141;28;20050;-79
2022/03/01 13:06:56;;;;;;;3.70;2.92;;;;;;;;;;4976440;28;20042;-79
2022/03/01 13:09:21;;;;;;;4.47;3.00;;;;;;;;;;4992654;28;20065;-79
2022/03/01 13:11:47;;;;;;;4.05;2.90;;;;;;;;;;4976016;28;20096;-79
2022/03/01 13:14:16;;;;;;;4.55;2.97;;;;;;;;;;4998012;28;20142;-78
2022/03/01 13:16:47;;;;;;;3.72;2.50;;;;;;;;;;4989013;28;20046;-79
2022/03/01 13:19:15;;;;;;;5.28;3.20;;;;;;;;;;4941693;28;20042;-79
2022/03/01 13:21:41;;;;;;;5.15;3.15;;;;;;;;;;4973142;28;20073;-79
2022/03/01 13:24:18;;;;;;;4.70;2.97;;;;;;;;;;4980278;28;20031;-79
2022/03/01 13:26:44;;;;;;;3.75;2.67;;;;;;;;;;4972369;28;20031;-79
2022/03/01 13:29:20;;;;;;;4.38;3.28;;;;;;;;;;4972710;28;20050;-79
2022/03/01 13:31:46;;;;;;;4.72;2.92;;;;;;;;;;4961150;28;20046;-80
2022/03/01 13:34:13;;;;;;;4.93;2.97;;;;;;;;;;4970338;28;20034;-79
2022/03/01 13:36:39;;;;;;;4.53;3.13;;;;;;;;;;4967574;28;20038;-79
2022/03/01 13:39:15;;;;;;;3.72;2.42;;;;;;;;;;4956914;28;20117;-79
2022/03/01 13:41:42;;;;;;;4.03;2.40;;;;;;;;;;4942278;28;20037;-79
2022/03/01 13:44:23;;;;;;;4.00;3.00;;;;;;;;;;4959190;28;20536;-79
2022/03/01 13:47:14;;;;;;;3.85;2.70;;;;;;;;;;4991851;28;20125;-79
2022/03/01 13:49:41;;;;;;;3.45;2.63;;;;;;;;;;4991853;28;20067;-79
2022/03/01 13:52:14;;;;;;;4.95;2.60;;;;;;;;;;4970159;28;20031;-79
2022/03/01 13:54:42;;;;;;;5.25;2.90;;;;;;;;;;4971882;28;20050;-79
2022/03/01 13:57:08;;;;;;;4.65;3.33;;;;;;;;;;4964664;28;20050;-79
2022/03/01 13:59:34;;;;;;;4.53;2.90;;;;;;;;;;4984741;28;20045;-79
2022/03/01 14:02:00;;;;;;;4.32;3.00;;;;;;;;;;4972211;28;20454;-79
2022/03/01 14:04:26;;;;;;;3.85;2.65;;;;;;;;;;4972042;28;20132;-79
2022/03/01 14:06:54;;;;;;;4.20;2.60;;;;;;;;;;4956014;28;20031;-79
2022/03/01 14:09:19;;;;;;;4.07;2.78;;;;;;;;;;4956557;28;20038;-79
2022/03/01 14:11:58;;;;;;;5.25;3.08;;;;;;;;;;4967836;28;20031;-79
2022/03/01 14:14:25;;;;;;;4.22;2.65;;;;;;;;;;4972323;28;20105;-79
2022/03/01 14:16:50;;;;;;;4.53;2.70;;;;;;;;;;4955720;28;20513;-79
2022/03/01 14:19:16;;;;;;;4.47;2.88;;;;;;;;;;4958070;28;20070;-79
2022/03/01 14:21:42;;;;;;;5.47;2.60;;;;;;;;;;4960616;28;20501;-79
2022/03/01 14:24:07;;;;;;;4.03;2.60;;;;;;;;;;4955445;28;20058;-79
2022/03/01 14:26:33;;;;;;;4.43;2.60;;;;;;;;;;4971786;28;20046;-79
2022/03/01 14:29:00;;;;;;;3.33;2.50;;;;;;;;;;4956950;28;20066;-79
2022/03/01 14:31:27;;;;;;;4.15;2.42;;;;;;;;;;4946230;28;20046;-79
2022/03/01 14:33:52;;;;;;;3.63;2.17;;;;;;;;;;4953941;28;20089;-79
2022/03/01 14:36:19;;;;;;;3.83;2.70;;;;;;;;;;4974619;28;20066;-79
2022/03/01 14:38:44;;;;;;;3.58;2.50;;;;;;;;;;4974617;28;20049;-80